Time;durP1;ratioP1;P1;durP2;ratioP2;P2;SDS_P1;SDS_P2;PMS_P1;PMS_P2;Temp;Humidity;BMP_temperature;BMP_pressure;BME280_temperature;BME280_humidity;BME280_pressure;Samples;Min_cycle;Max_cycle;Signal;HPM_P1;HPM_P2
2023/08/29 00:01:37;;;;;;;0.80;0.80;;;15.30;99.90;;;;;;5027453;28;20262;-78
2023/08/29 00:04:04;;;;;;;0.90;0.90;;;15.30;99.90;;;;;;5016155;28;20195;-76
2023/08/29 00:06:31;;;;;;;1.98;1.20;;;15.30;99.90;;;;;;5026186;28;20211;-75
2023/08/29 00:08:58;;;;;;;1.00;0.90;;;15.40;99.90;;;;;;5011552;28;20224;-79
2023/08/29 00:11:26;;;;;;;0.85;0.85;;;15.30;99.90;;;;;;5027530;28;20238;-75
2023/08/29 00:13:56;;;;;;;0.80;0.80;;;15.30;99.90;;;;;;5024639;28;20868;-78
2023/08/29 00:16:23;;;;;;;0.80;0.80;;;15.40;99.90;;;;;;5026331;28;20257;-78
2023/08/29 00:18:51;;;;;;;0.90;0.90;;;15.60;99.90;;;;;;5020262;28;20219;-77
2023/08/29 00:21:18;;;;;;;1.05;0.98;;;15.90;99.90;;;;;;5028822;28;20238;-75
2023/08/29 00:23:47;;;;;;;0.93;0.93;;;16.30;99.90;;;;;;5031412;28;20203;-77
2023/08/29 00:26:14;;;;;;;0.93;0.80;;;16.50;99.90;;;;;;5030391;28;20215;-77
2023/08/29 00:28:41;;;;;;;0.80;0.80;;;16.60;99.90;;;;;;5030081;28;20270;-76
2023/08/29 00:31:08;;;;;;;2.25;1.33;;;16.80;99.90;;;;;;5030928;28;20580;-77
2023/08/29 00:33:35;;;;;;;1.88;0.80;;;16.80;99.90;;;;;;5033062;28;20191;-78
2023/08/29 00:36:03;;;;;;;0.80;0.80;;;16.90;99.90;;;;;;5031463;28;20647;-80
2023/08/29 00:38:30;;;;;;;0.95;0.70;;;17.00;99.90;;;;;;5020754;28;20216;-76
2023/08/29 00:40:59;;;;;;;1.65;0.90;;;17.00;99.90;;;;;;5035245;28;20250;-77
2023/08/29 00:43:26;;;;;;;0.80;0.80;;;16.90;99.90;;;;;;5027051;28;20200;-77
2023/08/29 00:45:53;;;;;;;0.70;0.70;;;16.80;99.90;;;;;;5022318;28;20235;-77
2023/08/29 00:48:20;;;;;;;0.85;0.65;;;16.70;99.90;;;;;;5034874;28;20310;-79
2023/08/29 00:50:48;;;;;;;0.80;0.80;;;16.50;99.90;;;;;;5033747;28;20266;-76
2023/08/29 00:53:16;;;;;;;1.10;0.80;;;16.40;99.90;;;;;;5037414;28;20191;-79
2023/08/29 00:55:43;;;;;;;0.93;0.93;;;16.30;99.90;;;;;;5040145;28;20219;-76
2023/08/29 00:58:10;;;;;;;0.80;0.80;;;16.20;99.90;;;;;;5039386;28;20215;-81
2023/08/29 01:00:37;;;;;;;0.88;0.80;;;16.30;99.90;;;;;;5033096;28;20211;-80
2023/08/29 01:03:05;;;;;;;0.85;0.85;;;16.40;99.90;;;;;;5035686;28;20199;-79
2023/08/29 01:05:32;;;;;;;0.65;0.65;;;16.50;99.90;;;;;;5040144;28;20204;-78
2023/08/29 01:08:01;;;;;;;0.70;0.70;;;16.60;99.90;;;;;;5024314;28;20248;-83
2023/08/29 01:10:37;;;;;;;0.95;0.93;;;16.70;99.90;;;;;;5029068;28;20254;-78
2023/08/29 01:13:11;;;;;;;0.80;0.80;;;16.70;99.90;;;;;;5033364;28;20230;-78
2023/08/29 01:15:40;;;;;;;0.70;0.70;;;16.70;99.90;;;;;;5036048;28;20295;-75
2023/08/29 01:18:08;;;;;;;0.68;0.68;;;16.70;99.90;;;;;;5034448;28;20261;-76
2023/08/29 01:20:37;;;;;;;0.70;0.70;;;16.70;99.90;;;;;;5037037;28;20270;-77
2023/08/29 01:23:13;;;;;;;1.77;0.70;;;16.60;99.90;;;;;;5037974;28;20207;-79
2023/08/29 01:25:49;;;;;;;0.80;0.80;;;16.50;99.90;;;;;;5036451;28;20204;-77
2023/08/29 01:28:18;;;;;;;0.60;0.60;;;16.50;99.90;;;;;;5041623;28;20253;-78
2023/08/29 01:30:46;;;;;;;1.38;0.60;;;16.50;99.90;;;;;;5039337;28;20227;-77
2023/08/29 01:33:14;;;;;;;0.98;0.70;;;16.40;99.90;;;;;;5030535;28;20204;-77
2023/08/29 01:35:46;;;;;;;0.88;0.80;;;16.40;99.90;;;;;;5026429;28;20665;-76
2023/08/29 01:38:13;;;;;;;0.50;0.50;;;16.30;99.90;;;;;;5036133;28;20219;-76
2023/08/29 01:40:40;;;;;;;0.63;0.63;;;16.40;99.90;;;;;;5023927;28;20199;-76
2023/08/29 01:43:07;;;;;;;0.65;0.60;;;16.40;99.90;;;;;;5037612;28;20222;-78
2023/08/29 01:45:36;;;;;;;0.60;0.60;;;16.30;99.90;;;;;;5036717;28;20203;-78
2023/08/29 01:48:04;;;;;;;0.70;0.70;;;16.20;99.90;;;;;;5036584;28;20773;-78
2023/08/29 01:50:34;;;;;;;0.65;0.65;;;16.10;99.90;;;;;;5033027;28;20195;-79
2023/08/29 01:53:01;;;;;;;0.70;0.70;;;16.10;99.90;;;;;;5038576;28;20267;-80
2023/08/29 01:55:29;;;;;;;0.60;0.60;;;16.10;99.90;;;;;;5041090;28;20732;-77
2023/08/29 01:57:59;;;;;;;0.60;0.60;;;16.10;99.90;;;;;;5028153;28;20302;-75
2023/08/29 02:00:27;;;;;;;0.60;0.60;;;16.00;99.90;;;;;;5025414;28;20235;-77
2023/08/29 02:02:55;;;;;;;0.68;0.68;;;15.90;99.90;;;;;;5031697;28;20691;-76
2023/08/29 02:05:22;;;;;;;1.50;0.60;;;15.70;99.90;;;;;;5030176;28;20203;-78
2023/08/29 02:07:50;;;;;;;0.77;0.77;;;15.30;99.90;;;;;;5031460;28;20227;-79
2023/08/29 02:10:17;;;;;;;0.80;0.80;;;15.10;99.90;;;;;;5024236;28;20226;-77
2023/08/29 02:12:44;;;;;;;0.60;0.60;;;15.10;99.90;;;;;;5022063;28;20208;-80
2023/08/29 02:15:11;;;;;;;0.60;0.60;;;15.20;99.90;;;;;;5020644;28;20196;-78
2023/08/29 02:17:38;;;;;;;0.75;0.75;;;15.30;99.90;;;;;;5024316;28;20216;-77
2023/08/29 02:20:08;;;;;;;0.70;0.70;;;15.50;99.90;;;;;;5020885;28;20262;-75
2023/08/29 02:22:36;;;;;;;0.70;0.70;;;15.50;99.90;;;;;;5027554;28;20746;-78
2023/08/29 02:25:04;;;;;;;0.65;0.65;;;15.50;99.90;;;;;;5032215;28;20203;-77
2023/08/29 02:27:32;;;;;;;0.60;0.60;;;15.70;99.90;;;;;;5028380;28;20222;-76
2023/08/29 02:29:59;;;;;;;0.60;0.60;;;15.80;99.90;;;;;;5033797;28;20204;-77
2023/08/29 02:32:26;;;;;;;0.80;0.80;;;15.90;99.90;;;;;;5027641;28;20204;-76
2023/08/29 02:34:53;;;;;;;0.68;0.68;;;16.10;99.90;;;;;;5030001;28;20203;-76
2023/08/29 02:37:21;;;;;;;0.80;0.80;;;16.30;99.90;;;;;;5032302;28;20242;-75
2023/08/29 02:39:48;;;;;;;0.70;0.70;;;16.40;99.90;;;;;;5023598;28;20882;-74
2023/08/29 02:42:15;;;;;;;0.63;0.63;;;16.40;99.90;;;;;;5035958;28;20230;-75
2023/08/29 02:44:42;;;;;;;0.68;0.68;;;16.30;99.90;;;;;;5022046;28;20235;-76
2023/08/29 02:47:09;;;;;;;0.60;0.60;;;16.20;99.90;;;;;;5032328;28;20305;-74
2023/08/29 02:49:36;;;;;;;0.70;0.70;;;16.10;99.90;;;;;;5024860;28;20203;-75
2023/08/29 02:52:03;;;;;;;0.50;0.50;;;16.10;99.90;;;;;;5033420;28;20658;-77
2023/08/29 02:54:31;;;;;;;0.63;0.63;;;16.10;99.90;;;;;;5015410;28;20203;-76
2023/08/29 02:56:58;;;;;;;0.68;0.63;;;16.10;99.90;;;;;;5034450;28;20203;-74
2023/08/29 02:59:26;;;;;;;0.80;0.80;;;16.10;99.90;;;;;;5032739;28;20242;-76
2023/08/29 03:01:53;;;;;;;0.60;0.60;;;16.20;99.90;;;;;;5034963;28;20650;-79
2023/08/29 03:04:20;;;;;;;0.90;0.90;;;16.20;99.90;;;;;;5030956;28;20200;-79
2023/08/29 03:06:47;;;;;;;0.60;0.60;;;16.30;99.90;;;;;;5029684;28;20293;-77
2023/08/29 03:09:14;;;;;;;0.60;0.60;;;16.40;99.90;;;;;;5024644;28;20224;-77
2023/08/29 03:11:42;;;;;;;0.60;0.60;;;16.30;99.90;;;;;;5030539;28;20643;-77
2023/08/29 03:14:09;;;;;;;0.60;0.60;;;16.30;99.90;;;;;;5027868;28;20227;-76
2023/08/29 03:16:36;;;;;;;0.60;0.60;;;16.30;99.90;;;;;;5037394;28;20292;-77
2023/08/29 03:19:03;;;;;;;0.52;0.52;;;16.40;99.90;;;;;;5023840;28;20357;-77
2023/08/29 03:21:30;;;;;;;0.70;0.70;;;16.40;99.90;;;;;;5029440;28;20871;-77
2023/08/29 03:23:57;;;;;;;0.80;0.80;;;16.40;99.90;;;;;;5033510;28;20227;-76
2023/08/29 03:26:24;;;;;;;0.60;0.60;;;16.40;99.90;;;;;;5032369;28;20256;-74
2023/08/29 03:28:53;;;;;;;0.73;0.73;;;16.40;99.90;;;;;;5014551;28;20265;-76
2023/08/29 03:31:19;;;;;;;1.75;1.05;;;16.40;99.90;;;;;;5029401;28;20199;-75
2023/08/29 03:33:47;;;;;;;0.50;0.50;;;16.30;99.90;;;;;;5022272;28;20669;-77
2023/08/29 03:36:14;;;;;;;0.50;0.50;;;16.30;99.90;;;;;;5024808;28;20208;-75
2023/08/29 03:38:43;;;;;;;1.23;0.60;;;16.30;99.90;;;;;;5028464;28;20215;-81
2023/08/29 03:41:09;;;;;;;0.50;0.50;;;16.30;99.90;;;;;;5027041;28;20231;-78
2023/08/29 03:43:37;;;;;;;0.60;0.60;;;16.40;99.90;;;;;;5029970;28;21021;-76
2023/08/29 03:46:06;;;;;;;0.70;0.70;;;16.40;99.90;;;;;;5028424;28;20230;-76
2023/08/29 03:48:34;;;;;;;0.50;0.50;;;16.30;99.90;;;;;;5028734;28;20220;-77
2023/08/29 03:51:05;;;;;;;0.57;0.57;;;16.30;99.90;;;;;;5016340;28;20570;-75
2023/08/29 03:53:32;;;;;;;1.40;0.60;;;16.40;99.90;;;;;;5019885;28;20314;-75
2023/08/29 03:56:02;;;;;;;1.65;0.70;;;16.30;99.90;;;;;;5027203;28;20234;-78
2023/08/29 03:58:29;;;;;;;0.50;0.50;;;16.30;99.90;;;;;;5028396;28;20220;-75
2023/08/29 04:00:56;;;;;;;0.52;0.52;;;16.40;99.90;;;;;;5025680;28;20269;-79
2023/08/29 04:03:24;;;;;;;0.60;0.60;;;16.30;99.90;;;;;;5029629;28;20619;-78
2023/08/29 04:05:51;;;;;;;0.60;0.60;;;16.30;99.90;;;;;;5026586;28;20327;-77
2023/08/29 04:08:18;;;;;;;0.77;0.77;;;16.20;99.90;;;;;;5027987;28;20255;-75
2023/08/29 04:10:45;;;;;;;1.05;0.70;;;16.20;99.90;;;;;;5026416;28;20207;-77
2023/08/29 04:13:12;;;;;;;0.60;0.60;;;16.20;99.90;;;;;;5028622;28;20199;-80
2023/08/29 04:15:39;;;;;;;0.63;0.63;;;16.20;99.90;;;;;;5028835;28;20203;-79
2023/08/29 04:18:07;;;;;;;3.13;0.70;;;16.30;99.90;;;;;;5026908;28;20898;-84
2023/08/29 04:20:36;;;;;;;0.70;0.70;;;16.10;99.90;;;;;;5039509;28;20204;-77
2023/08/29 04:23:04;;;;;;;0.70;0.70;;;16.10;99.90;;;;;;5031516;28;20203;-77
2023/08/29 04:25:31;;;;;;;0.63;0.63;;;15.90;99.90;;;;;;5023035;28;20206;-78
2023/08/29 04:27:58;;;;;;;0.50;0.50;;;15.90;99.90;;;;;;5021359;28;20247;-79
2023/08/29 04:30:25;;;;;;;0.60;0.60;;;15.80;99.90;;;;;;5036823;28;20199;-78
2023/08/29 04:32:52;;;;;;;0.60;0.60;;;15.90;99.90;;;;;;5029294;28;20215;-79
2023/08/29 04:35:19;;;;;;;0.60;0.60;;;15.90;99.90;;;;;;5019026;28;20803;-79
2023/08/29 04:37:49;;;;;;;0.60;0.60;;;15.90;99.90;;;;;;5029755;28;20244;-75
2023/08/29 04:40:18;;;;;;;0.65;0.65;;;15.90;99.90;;;;;;5028974;28;20234;-77
2023/08/29 04:42:45;;;;;;;0.70;0.70;;;15.90;99.90;;;;;;5033204;28;20901;-77
2023/08/29 04:45:12;;;;;;;0.50;0.50;;;15.80;99.90;;;;;;5032876;28;20855;-79
2023/08/29 04:47:39;;;;;;;0.70;0.70;;;15.70;99.90;;;;;;5036888;28;20277;-80
2023/08/29 04:50:07;;;;;;;0.60;0.60;;;15.70;99.90;;;;;;5033932;28;20208;-75
2023/08/29 04:52:35;;;;;;;0.52;0.52;;;15.70;99.90;;;;;;5028520;28;20267;-77
2023/08/29 04:55:04;;;;;;;0.60;0.60;;;15.70;99.90;;;;;;5023597;28;20736;-75
2023/08/29 04:57:32;;;;;;;0.80;0.80;;;15.70;99.90;;;;;;5028477;28;20243;-75
2023/08/29 05:00:00;;;;;;;1.23;0.65;;;15.70;99.90;;;;;;5020447;28;20228;-82
2023/08/29 05:02:27;;;;;;;0.60;0.60;;;15.50;99.90;;;;;;5028749;28;20199;-83
2023/08/29 05:04:54;;;;;;;0.60;0.60;;;15.20;99.90;;;;;;5034755;28;20547;-79
2023/08/29 05:07:21;;;;;;;0.70;0.70;;;15.10;99.90;;;;;;5025536;28;20996;-78
2023/08/29 05:09:48;;;;;;;0.60;0.60;;;15.00;99.90;;;;;;5031737;28;20737;-78
2023/08/29 05:12:16;;;;;;;0.70;0.70;;;15.20;99.90;;;;;;5031385;28;20256;-76
2023/08/29 05:14:43;;;;;;;0.90;0.80;;;15.20;99.90;;;;;;5025963;28;20650;-79
2023/08/29 05:17:11;;;;;;;0.70;0.70;;;15.40;99.90;;;;;;5038046;28;20241;-79
2023/08/29 05:19:38;;;;;;;0.70;0.70;;;15.60;99.90;;;;;;5034139;28;20295;-84
2023/08/29 05:22:05;;;;;;;0.60;0.60;;;15.70;99.90;;;;;;5029065;28;20199;-78
2023/08/29 05:24:32;;;;;;;0.60;0.60;;;15.70;99.90;;;;;;5036010;28;20253;-77
2023/08/29 05:26:59;;;;;;;0.60;0.60;;;15.60;99.90;;;;;;5030283;28;20235;-79
2023/08/29 05:29:27;;;;;;;1.58;0.68;;;15.60;99.90;;;;;;5027417;28;20258;-75
2023/08/29 05:31:54;;;;;;;0.77;0.70;;;15.70;99.90;;;;;;5033084;28;20264;-79
2023/08/29 05:34:21;;;;;;;0.60;0.60;;;15.80;99.90;;;;;;5032301;28;20195;-78
2023/08/29 05:36:50;;;;;;;0.52;0.52;;;15.90;99.90;;;;;;5032391;28;20238;-76
2023/08/29 05:39:17;;;;;;;0.60;0.60;;;16.00;99.90;;;;;;5030254;28;20843;-78
2023/08/29 05:41:44;;;;;;;0.65;0.65;;;16.00;99.90;;;;;;5031128;28;20198;-74
2023/08/29 05:44:12;;;;;;;0.60;0.60;;;15.80;99.90;;;;;;5034332;28;20231;-79
2023/08/29 05:46:40;;;;;;;0.60;0.60;;;15.80;99.90;;;;;;5035431;28;20290;-75
2023/08/29 05:49:07;;;;;;;1.38;0.60;;;15.90;99.90;;;;;;5025175;28;20248;-74
2023/08/29 05:51:34;;;;;;;0.60;0.60;;;15.90;99.90;;;;;;5030159;28;20194;-78
2023/08/29 05:54:01;;;;;;;0.70;0.70;;;16.00;99.90;;;;;;5035204;28;20229;-75
2023/08/29 05:56:28;;;;;;;0.70;0.70;;;15.90;99.90;;;;;;5025146;28;20215;-78
2023/08/29 05:58:55;;;;;;;0.65;0.65;;;16.00;99.90;;;;;;5021468;28;20223;-76
2023/08/29 06:01:22;;;;;;;0.70;0.70;;;16.10;99.90;;;;;;5033769;28;20229;-76
2023/08/29 06:03:51;;;;;;;0.57;0.57;;;16.20;99.90;;;;;;5037426;28;20698;-77
2023/08/29 06:06:19;;;;;;;0.80;0.80;;;16.20;99.90;;;;;;5032994;28;20453;-79
2023/08/29 06:08:46;;;;;;;1.17;0.80;;;16.30;99.90;;;;;;5031893;28;20280;-78
2023/08/29 06:11:13;;;;;;;1.05;0.70;;;16.40;99.90;;;;;;5032160;28;20210;-76
2023/08/29 06:13:40;;;;;;;0.65;0.65;;;16.40;99.90;;;;;;5030712;28;20220;-79
2023/08/29 06:16:07;;;;;;;0.80;0.80;;;16.50;99.90;;;;;;5028206;28;20252;-76
2023/08/29 06:18:34;;;;;;;0.60;0.60;;;16.60;99.90;;;;;;5035502;28;20293;-81
2023/08/29 06:21:04;;;;;;;0.60;0.60;;;16.60;99.90;;;;;;5034397;28;20196;-78
2023/08/29 06:23:31;;;;;;;1.58;0.80;;;16.60;99.90;;;;;;5034309;28;20210;-78
2023/08/29 06:25:59;;;;;;;0.60;0.60;;;16.80;99.90;;;;;;5033543;28;20222;-77
2023/08/29 06:28:27;;;;;;;0.75;0.75;;;16.90;99.90;;;;;;5039523;28;20286;-76
2023/08/29 06:30:54;;;;;;;0.60;0.60;;;17.00;99.90;;;;;;5030636;28;20730;-77
2023/08/29 06:33:21;;;;;;;0.50;0.50;;;17.10;99.90;;;;;;5040618;28;20219;-81
2023/08/29 06:35:49;;;;;;;0.70;0.70;;;17.10;99.90;;;;;;5032455;28;20227;-81
2023/08/29 06:38:17;;;;;;;0.60;0.60;;;17.10;99.90;;;;;;5031160;28;20265;-79
2023/08/29 06:40:44;;;;;;;1.80;0.60;;;17.30;99.90;;;;;;5019275;28;20205;-77
2023/08/29 06:43:11;;;;;;;0.73;0.50;;;17.50;99.90;;;;;;5023756;28;21112;-81
2023/08/29 06:45:39;;;;;;;1.58;0.65;;;17.70;99.90;;;;;;5024477;28;20290;-82
2023/08/29 06:48:06;;;;;;;1.70;0.50;;;18.00;99.90;;;;;;5023204;28;20237;-74
2023/08/29 06:50:34;;;;;;;1.55;0.60;;;18.10;99.90;;;;;;5017301;28;20195;-76
2023/08/29 06:53:01;;;;;;;0.60;0.60;;;18.10;99.90;;;;;;5027174;28;20203;-83
2023/08/29 06:55:31;;;;;;;0.63;0.63;;;18.00;99.90;;;;;;5017431;28;20234;-78
2023/08/29 06:57:58;;;;;;;0.50;0.50;;;17.90;99.90;;;;;;5012528;28;20302;-77
2023/08/29 07:00:25;;;;;;;0.60;0.60;;;17.90;99.90;;;;;;5019058;28;20263;-77
2023/08/29 07:02:52;;;;;;;0.50;0.50;;;17.90;99.90;;;;;;5021811;28;20235;-77
2023/08/29 07:05:19;;;;;;;0.60;0.60;;;18.00;99.90;;;;;;5022389;28;20196;-76
2023/08/29 07:07:46;;;;;;;0.60;0.60;;;18.10;99.90;;;;;;5024847;28;20243;-75
2023/08/29 07:10:13;;;;;;;0.50;0.50;;;18.30;99.90;;;;;;5027923;28;20235;-81
2023/08/29 07:12:42;;;;;;;0.60;0.60;;;18.30;99.90;;;;;;5027831;28;20943;-75
2023/08/29 07:15:10;;;;;;;0.73;0.52;;;18.30;99.90;;;;;;5020769;28;20806;-76
2023/08/29 07:17:37;;;;;;;0.50;0.47;;;18.40;99.90;;;;;;5018169;28;20229;-78
2023/08/29 07:20:08;;;;;;;0.73;0.60;;;18.50;99.90;;;;;;5020323;28;20211;-77
2023/08/29 07:22:36;;;;;;;0.60;0.60;;;18.50;99.90;;;;;;5015531;28;20210;-74
2023/08/29 07:25:04;;;;;;;0.90;0.60;;;18.40;99.90;;;;;;5023193;28;20799;-78
2023/08/29 07:27:31;;;;;;;1.70;0.65;;;18.30;99.90;;;;;;5021766;28;20251;-75
2023/08/29 07:29:59;;;;;;;0.68;0.68;;;18.20;99.90;;;;;;5020675;28;20223;-76
2023/08/29 07:32:27;;;;;;;0.68;0.68;;;18.00;99.90;;;;;;5023115;28;20199;-75
2023/08/29 07:34:55;;;;;;;0.70;0.70;;;17.80;99.90;;;;;;5014668;28;20203;-75
2023/08/29 07:37:22;;;;;;;0.70;0.70;;;17.60;99.90;;;;;;5025606;28;20885;-75
2023/08/29 07:39:49;;;;;;;0.70;0.70;;;17.50;99.90;;;;;;5020530;28;20196;-75
2023/08/29 07:42:16;;;;;;;0.80;0.80;;;17.60;99.90;;;;;;5024376;28;20282;-74
2023/08/29 07:44:43;;;;;;;0.75;0.75;;;17.60;99.90;;;;;;5027503;28;20199;-74
2023/08/29 07:47:12;;;;;;;1.08;0.80;;;17.60;99.90;;;;;;5024073;28;20270;-76
2023/08/29 07:49:39;;;;;;;0.82;0.75;;;17.60;99.90;;;;;;5021548;28;20709;-75
2023/08/29 07:52:06;;;;;;;0.60;0.60;;;17.60;99.90;;;;;;5028114;28;20263;-76
2023/08/29 07:54:33;;;;;;;0.60;0.60;;;17.60;99.90;;;;;;5025878;28;20247;-80
2023/08/29 07:57:00;;;;;;;1.00;0.90;;;17.50;99.90;;;;;;5026181;28;20208;-74
2023/08/29 07:59:27;;;;;;;1.73;0.77;;;17.50;99.90;;;;;;5024806;28;20265;-80
2023/08/29 08:01:54;;;;;;;0.93;0.80;;;17.40;99.90;;;;;;5031616;28;20215;-80
2023/08/29 08:04:22;;;;;;;3.15;0.90;;;17.30;99.90;;;;;;5020833;28;20199;-74
2023/08/29 08:06:49;;;;;;;0.93;0.70;;;17.40;99.90;;;;;;5031501;28;20203;-77
2023/08/29 08:09:17;;;;;;;0.88;0.88;;;17.40;99.90;;;;;;5030786;28;20232;-77
2023/08/29 08:11:44;;;;;;;1.08;1.00;;;17.40;99.90;;;;;;5030434;28;20262;-74
2023/08/29 08:14:12;;;;;;;0.93;0.70;;;17.60;99.90;;;;;;5025859;28;20224;-75
2023/08/29 08:16:39;;;;;;;0.70;0.70;;;17.80;99.90;;;;;;5028840;28;20200;-77
2023/08/29 08:19:07;;;;;;;2.15;0.80;;;18.10;99.90;;;;;;5023347;28;20215;-77
2023/08/29 08:21:35;;;;;;;0.73;0.60;;;18.30;99.90;;;;;;5026305;28;20219;-74
2023/08/29 08:24:03;;;;;;;0.70;0.70;;;18.40;99.90;;;;;;5022209;28;20212;-76
2023/08/29 08:26:30;;;;;;;0.63;0.63;;;18.40;99.90;;;;;;5020686;28;20208;-76
2023/08/29 08:28:59;;;;;;;0.50;0.50;;;18.50;99.90;;;;;;5025681;28;20314;-78
2023/08/29 08:31:26;;;;;;;1.50;0.80;;;18.40;99.90;;;;;;5027071;28;20258;-75
2023/08/29 08:33:56;;;;;;;0.70;0.70;;;18.40;99.90;;;;;;5029099;28;20218;-76
2023/08/29 08:36:22;;;;;;;0.85;0.60;;;18.30;99.90;;;;;;5020692;28;20281;-75
2023/08/29 08:38:51;;;;;;;2.55;0.68;;;18.20;99.90;;;;;;5027757;28;20239;-76
2023/08/29 08:41:19;;;;;;;0.63;0.63;;;18.10;99.90;;;;;;5027807;28;20262;-74
2023/08/29 08:43:46;;;;;;;0.77;0.70;;;18.00;99.90;;;;;;5021482;28;20238;-75
2023/08/29 08:46:17;;;;;;;0.70;0.70;;;17.90;99.90;;;;;;5022649;28;20200;-74
2023/08/29 08:48:44;;;;;;;1.13;0.70;;;18.00;99.90;;;;;;5021889;28;20234;-76
2023/08/29 08:51:12;;;;;;;0.70;0.70;;;18.00;99.90;;;;;;5023666;28;20273;-76
2023/08/29 08:53:41;;;;;;;0.70;0.70;;;18.00;99.90;;;;;;5022231;28;20228;-77
2023/08/29 08:56:09;;;;;;;0.85;0.80;;;17.90;99.90;;;;;;5027089;28;20231;-76
2023/08/29 08:58:37;;;;;;;0.60;0.60;;;17.90;99.90;;;;;;5021134;28;20297;-76
2023/08/29 09:01:05;;;;;;;0.70;0.70;;;17.90;99.90;;;;;;5022077;28;20199;-75
2023/08/29 09:03:34;;;;;;;0.68;0.68;;;18.00;99.90;;;;;;5019113;28;20658;-76
2023/08/29 09:06:01;;;;;;;0.70;0.70;;;18.20;99.90;;;;;;5024912;28;20277;-74
2023/08/29 09:08:31;;;;;;;0.82;0.82;;;18.40;99.90;;;;;;5023364;28;20219;-76
2023/08/29 09:11:01;;;;;;;0.70;0.70;;;18.40;99.90;;;;;;5020083;28;20195;-75
2023/08/29 09:13:29;;;;;;;0.63;0.55;;;18.50;99.90;;;;;;5021534;28;20231;-75
2023/08/29 09:15:58;;;;;;;0.68;0.63;;;18.60;99.90;;;;;;5018883;28;20207;-77
2023/08/29 09:18:25;;;;;;;0.63;0.63;;;18.80;99.90;;;;;;5021325;28;20749;-75
2023/08/29 09:20:53;;;;;;;0.70;0.70;;;18.90;99.90;;;;;;5022615;28;20263;-75
2023/08/29 09:23:23;;;;;;;0.70;0.70;;;19.00;99.90;;;;;;5020387;28;20290;-75
2023/08/29 09:25:55;;;;;;;0.70;0.70;;;19.10;99.90;;;;;;5017255;28;20207;-76
2023/08/29 09:28:23;;;;;;;0.57;0.57;;;19.30;99.90;;;;;;5022431;28;20215;-73
2023/08/29 09:30:51;;;;;;;0.65;0.65;;;19.40;99.90;;;;;;5024989;28;20226;-74
2023/08/29 09:33:22;;;;;;;2.03;0.60;;;19.60;99.90;;;;;;5022384;28;20285;-74
2023/08/29 09:35:50;;;;;;;0.70;0.70;;;19.90;99.90;;;;;;5021023;28;20219;-76
2023/08/29 09:38:18;;;;;;;0.60;0.60;;;20.30;99.90;;;;;;5020860;28;20231;-74
2023/08/29 09:40:49;;;;;;;2.63;0.52;;;20.50;99.90;;;;;;5021473;28;20282;-76
2023/08/29 09:43:17;;;;;;;0.60;0.60;;;20.50;99.90;;;;;;5025384;28;20242;-74
2023/08/29 09:45:50;;;;;;;0.85;0.65;;;20.50;99.90;;;;;;5017519;28;20257;-75
2023/08/29 09:48:19;;;;;;;0.70;0.47;;;20.40;99.90;;;;;;5019662;28;20228;-74
2023/08/29 09:50:48;;;;;;;0.50;0.50;;;20.40;99.90;;;;;;5018045;28;20785;-74
2023/08/29 09:53:16;;;;;;;0.50;0.50;;;20.50;99.90;;;;;;5018012;28;20200;-76
2023/08/29 09:55:45;;;;;;;0.60;0.60;;;20.60;99.90;;;;;;5016699;28;20706;-74
2023/08/29 09:58:14;;;;;;;0.50;0.50;;;20.60;99.90;;;;;;5018880;28;20301;-75
2023/08/29 10:00:42;;;;;;;0.50;0.50;;;20.60;99.90;;;;;;5015749;28;20195;-76
2023/08/29 10:03:10;;;;;;;0.50;0.50;;;20.80;99.90;;;;;;5020143;28;20199;-75
2023/08/29 10:05:40;;;;;;;1.00;0.45;;;20.80;99.90;;;;;;5018420;28;20284;-74
2023/08/29 10:08:16;;;;;;;0.82;0.50;;;20.70;99.90;;;;;;5018143;28;20255;-75
2023/08/29 10:10:44;;;;;;;0.45;0.45;;;20.60;99.90;;;;;;5019882;28;20302;-76
2023/08/29 10:13:12;;;;;;;0.77;0.77;;;20.50;99.90;;;;;;5017460;28;20204;-76
2023/08/29 10:15:41;;;;;;;0.63;0.57;;;20.40;99.90;;;;;;5016419;28;20269;-75
2023/08/29 10:18:08;;;;;;;1.08;0.60;;;20.30;99.90;;;;;;5019827;28;20310;-75
2023/08/29 10:20:39;;;;;;;0.73;0.60;;;20.30;99.90;;;;;;5022041;28;20936;-76
2023/08/29 10:23:09;;;;;;;1.00;0.70;;;20.30;99.90;;;;;;5016204;28;20236;-78
2023/08/29 10:25:38;;;;;;;2.35;0.60;;;20.30;99.90;;;;;;5020667;28;20272;-78
2023/08/29 10:28:07;;;;;;;0.60;0.60;;;20.40;99.90;;;;;;5023500;28;20527;-78
2023/08/29 10:30:35;;;;;;;0.70;0.50;;;20.60;99.90;;;;;;5021864;28;20305;-76
2023/08/29 10:33:02;;;;;;;0.32;0.32;;;20.90;99.90;;;;;;5024455;28;20203;-76
2023/08/29 10:35:33;;;;;;;0.60;0.60;;;21.10;99.90;;;;;;5020379;28;20242;-76
2023/08/29 10:38:07;;;;;;;0.82;0.70;;;21.20;99.90;;;;;;5027098;28;20227;-76
2023/08/29 10:40:36;;;;;;;0.50;0.50;;;21.20;99.90;;;;;;5021106;28;20627;-75
2023/08/29 10:43:03;;;;;;;0.50;0.50;;;21.20;99.90;;;;;;5017109;28;20228;-75
2023/08/29 10:45:50;;;;;;;0.60;0.60;;;21.10;99.90;;;;;;5017582;28;20694;-74
2023/08/29 10:48:18;;;;;;;1.58;0.80;;;21.10;99.90;;;;;;5019237;28;20325;-76
2023/08/29 10:51:09;;;;;;;0.82;0.57;;;21.10;99.90;;;;;;5013735;28;20837;-75
2023/08/29 10:53:39;;;;;;;0.50;0.50;;;21.10;99.90;;;;;;5017853;28;20286;-75
2023/08/29 10:56:07;;;;;;;0.95;0.60;;;21.20;99.90;;;;;;5019910;28;20447;-75
2023/08/29 10:58:36;;;;;;;0.50;0.50;;;21.30;99.90;;;;;;5019454;28;20219;-75
2023/08/29 11:01:04;;;;;;;0.50;0.50;;;21.50;99.90;;;;;;5015230;28;20244;-76
2023/08/29 11:03:49;;;;;;;0.88;0.60;;;21.70;99.90;;;;;;5018526;28;20284;-77
2023/08/29 11:06:18;;;;;;;0.52;0.30;;;21.70;99.90;;;;;;5012319;28;20215;-74
2023/08/29 11:08:47;;;;;;;0.75;0.65;;;21.80;99.90;;;;;;5018480;28;20320;-76
2023/08/29 11:11:18;;;;;;;0.98;0.50;;;21.90;99.90;;;;;;5016859;28;20831;-76
2023/08/29 11:13:59;;;;;;;0.63;0.60;;;21.90;99.90;;;;;;5015708;28;20624;-76
2023/08/29 11:16:26;;;;;;;0.60;0.60;;;22.00;99.90;;;;;;5014346;28;20360;-77
2023/08/29 11:19:08;;;;;;;0.68;0.45;;;22.20;99.90;;;;;;5019511;28;20233;-75
2023/08/29 11:21:35;;;;;;;0.50;0.50;;;22.20;99.90;;;;;;5013286;28;20199;-74
2023/08/29 11:24:05;;;;;;;0.40;0.40;;;22.20;99.90;;;;;;5018819;28;20200;-75
2023/08/29 11:26:33;;;;;;;1.33;0.57;;;22.10;99.90;;;;;;5021797;28;20203;-77
2023/08/29 11:29:01;;;;;;;0.70;0.68;;;22.00;99.90;;;;;;5021411;28;20219;-76
2023/08/29 11:31:30;;;;;;;0.40;0.40;;;22.00;99.90;;;;;;5018963;28;20215;-75
2023/08/29 11:33:57;;;;;;;0.65;0.65;;;21.90;99.90;;;;;;5026119;28;20233;-73
2023/08/29 11:36:31;;;;;;;0.45;0.45;;;21.90;99.90;;;;;;5026346;28;20356;-75
2023/08/29 11:38:58;;;;;;;0.60;0.60;;;21.90;99.90;;;;;;5024215;28;20223;-75
2023/08/29 11:41:29;;;;;;;0.50;0.50;;;21.90;99.90;;;;;;5026122;28;20268;-76
2023/08/29 11:43:57;;;;;;;0.40;0.40;;;21.90;99.90;;;;;;5027212;28;20318;-75
2023/08/29 11:46:24;;;;;;;0.50;0.50;;;21.90;99.90;;;;;;5028238;28;20192;-74
2023/08/29 11:48:51;;;;;;;0.40;0.40;;;22.00;99.90;;;;;;5020862;28;20693;-76
2023/08/29 11:51:17;;;;;;;0.50;0.50;;;22.00;99.90;;;;;;5021407;28;20310;-76
2023/08/29 11:53:44;;;;;;;0.50;0.50;;;21.80;99.90;;;;;;5025856;28;20234;-74
2023/08/29 11:56:11;;;;;;;0.40;0.40;;;21.80;99.90;;;;;;5025123;28;20262;-74
2023/08/29 11:58:40;;;;;;;0.57;0.57;;;21.80;99.90;;;;;;5022130;28;20310;-74
2023/08/29 12:01:08;;;;;;;0.60;0.60;;;22.00;99.90;;;;;;5022407;28;20207;-75
2023/08/29 12:03:36;;;;;;;0.40;0.40;;;22.00;99.90;;;;;;5028291;28;20286;-75
2023/08/29 12:06:05;;;;;;;0.50;0.50;;;22.00;99.90;;;;;;5020796;28;20204;-75
2023/08/29 12:08:39;;;;;;;0.40;0.40;;;22.00;99.90;;;;;;5025103;28;20305;-75
2023/08/29 12:11:07;;;;;;;0.70;0.45;;;22.10;99.90;;;;;;5022009;28;20614;-75
2023/08/29 12:13:35;;;;;;;0.65;0.47;;;22.10;99.90;;;;;;5024522;28;20263;-75
2023/08/29 12:16:04;;;;;;;0.40;0.40;;;22.20;99.90;;;;;;5020784;28;20239;-74
2023/08/29 12:18:33;;;;;;;0.40;0.40;;;22.30;99.90;;;;;;5023945;28;20521;-74
2023/08/29 12:21:16;;;;;;;0.40;0.40;;;22.40;99.90;;;;;;5023598;28;20242;-76
2023/08/29 12:23:44;;;;;;;0.45;0.40;;;22.40;99.90;;;;;;5026690;28;20244;-75
2023/08/29 12:26:11;;;;;;;0.47;0.35;;;22.50;99.90;;;;;;5014622;28;20206;-75
2023/08/29 12:28:38;;;;;;;0.75;0.55;;;22.60;99.90;;;;;;5021734;28;20337;-74
2023/08/29 12:31:08;;;;;;;0.68;0.60;;;22.70;99.90;;;;;;5024029;28;20220;-74
2023/08/29 12:33:35;;;;;;;0.30;0.30;;;22.70;99.90;;;;;;5021921;28;20196;-74
2023/08/29 12:36:02;;;;;;;0.30;0.30;;;22.70;99.90;;;;;;5022703;28;20228;-76
2023/08/29 12:38:30;;;;;;;0.30;0.30;;;22.70;99.90;;;;;;5025839;28;20298;-75
2023/08/29 12:40:57;;;;;;;1.15;0.50;;;22.70;99.90;;;;;;5019201;28;20235;-76
2023/08/29 12:43:24;;;;;;;0.50;0.50;;;22.80;99.90;;;;;;5020727;28;20204;-76
2023/08/29 12:45:51;;;;;;;1.38;0.50;;;22.80;99.90;;;;;;5021467;28;20200;-75
2023/08/29 12:48:20;;;;;;;0.40;0.40;;;22.80;99.90;;;;;;5026061;28;20886;-75
2023/08/29 12:50:48;;;;;;;0.35;0.35;;;22.80;99.90;;;;;;5023805;28;20219;-75
2023/08/29 12:53:16;;;;;;;0.38;0.38;;;22.70;99.90;;;;;;5020237;28;20299;-75